Time;durP1;ratioP1;P1;durP2;ratioP2;P2;SDS_P1;SDS_P2;PMS_P1;PMS_P2;Temp;Humidity;BMP_temperature;BMP_pressure;BME280_temperature;BME280_humidity;BME280_pressure;Samples;Min_cycle;Max_cycle;Signal;HPM_P1;HPM_P2
2021/07/18 00:00:01;;;;;;;;;2.60;2.60;;;;;;;;5007382;28;8885;-78
2021/07/18 00:02:28;;;;;;;;;6.00;6.00;;;;;;;;5004461;28;8966;-82
2021/07/18 00:04:56;;;;;;;;;8.00;7.00;;;;;;;;5006557;28;8905;-82
2021/07/18 00:07:24;;;;;;;;;7.80;7.80;;;;;;;;5012953;28;9633;-80
2021/07/18 00:09:51;;;;;;;;;8.80;6.40;;;;;;;;5013936;28;8855;-80
2021/07/18 00:12:19;;;;;;;;;6.80;6.80;;;;;;;;5003512;28;8878;-80
2021/07/18 00:14:47;;;;;;;;;5.80;5.80;;;;;;;;5004680;28;9057;-80
2021/07/18 00:17:14;;;;;;;;;8.00;8.00;;;;;;;;5002344;28;8881;-80
2021/07/18 00:19:41;;;;;;;;;7.40;7.40;;;;;;;;5004938;28;8867;-79
2021/07/18 00:22:09;;;;;;;;;8.80;8.80;;;;;;;;5004453;28;8989;-81
2021/07/18 00:24:37;;;;;;;;;6.60;6.60;;;;;;;;5007217;28;8873;-80
2021/07/18 00:27:05;;;;;;;;;7.00;7.00;;;;;;;;5004632;28;8859;-81
2021/07/18 00:29:34;;;;;;;;;6.20;6.20;;;;;;;;5000223;28;8878;-79
2021/07/18 00:32:01;;;;;;;;;7.60;7.60;;;;;;;;5005043;28;8819;-80
2021/07/18 00:34:28;;;;;;;;;7.80;7.80;;;;;;;;5005532;28;8987;-80
2021/07/18 00:36:55;;;;;;;;;5.80;5.80;;;;;;;;5004856;28;8883;-82
2021/07/18 00:39:23;;;;;;;;;7.40;6.60;;;;;;;;5004666;28;8867;-80
2021/07/18 00:41:51;;;;;;;;;10.60;8.60;;;;;;;;5004946;28;9648;-80
2021/07/18 00:44:18;;;;;;;;;6.00;6.00;;;;;;;;5006821;28;8903;-85
2021/07/18 00:46:46;;;;;;;;;7.40;7.40;;;;;;;;5007131;28;8855;-79
2021/07/18 00:49:14;;;;;;;;;7.00;7.00;;;;;;;;5013681;28;8888;-80
2021/07/18 00:51:42;;;;;;;;;7.00;7.00;;;;;;;;5006404;28;8893;-79
2021/07/18 00:54:09;;;;;;;;;7.20;7.20;;;;;;;;5008496;28;8865;-79
2021/07/18 00:56:37;;;;;;;;;7.00;7.00;;;;;;;;4986884;28;8861;-79
2021/07/18 00:59:05;;;;;;;;;8.40;8.20;;;;;;;;4991326;28;8858;-81
2021/07/18 01:01:32;;;;;;;;;8.20;7.20;;;;;;;;5004517;28;8819;-80
2021/07/18 01:04:01;;;;;;;;;7.00;7.00;;;;;;;;5005784;28;8892;-80
2021/07/18 01:06:29;;;;;;;;;7.00;7.00;;;;;;;;5006999;28;8867;-80
2021/07/18 01:08:56;;;;;;;;;7.60;6.00;;;;;;;;5009204;28;8906;-79
2021/07/18 01:11:23;;;;;;;;;9.40;8.40;;;;;;;;5004476;28;8918;-80
2021/07/18 01:13:51;;;;;;;;;6.00;6.00;;;;;;;;5003852;28;8921;-79
2021/07/18 01:16:19;;;;;;;;;6.40;6.40;;;;;;;;4987446;28;8909;-78
2021/07/18 01:18:46;;;;;;;;;6.00;6.00;;;;;;;;5008181;28;8868;-78
2021/07/18 01:21:15;;;;;;;;;5.60;5.60;;;;;;;;4989196;28;8886;-78
2021/07/18 01:23:44;;;;;;;;;5.80;5.80;;;;;;;;5009619;28;8894;-82
2021/07/18 01:26:12;;;;;;;;;9.00;7.40;;;;;;;;5002362;28;8891;-78
2021/07/18 01:28:39;;;;;;;;;7.80;7.80;;;;;;;;5003501;28;8851;-80
2021/07/18 01:31:07;;;;;;;;;8.40;8.40;;;;;;;;5001128;28;8945;-79
2021/07/18 01:33:34;;;;;;;;;6.80;5.00;;;;;;;;5004243;28;8887;-79
2021/07/18 01:36:01;;;;;;;;;6.80;6.80;;;;;;;;5002534;28;8886;-80
2021/07/18 01:38:29;;;;;;;;;11.60;7.60;;;;;;;;5002673;28;8896;-79
2021/07/18 01:40:57;;;;;;;;;8.00;8.00;;;;;;;;5007835;28;8879;-83
2021/07/18 01:43:25;;;;;;;;;7.40;6.60;;;;;;;;5008956;28;8882;-78
2021/07/18 01:45:52;;;;;;;;;6.00;6.00;;;;;;;;5007617;28;8887;-82
2021/07/18 01:48:19;;;;;;;;;9.00;7.20;;;;;;;;5004363;28;8866;-78
2021/07/18 01:50:47;;;;;;;;;8.50;6.25;;;;;;;;5011578;28;8872;-80
2021/07/18 01:53:14;;;;;;;;;5.00;5.00;;;;;;;;5010757;28;8851;-79
2021/07/18 01:55:41;;;;;;;;;5.60;5.60;;;;;;;;5005216;28;8863;-78
2021/07/18 01:58:12;;;;;;;;;8.60;7.00;;;;;;;;5009755;28;8910;-82
2021/07/18 02:00:39;;;;;;;;;8.50;7.00;;;;;;;;5001801;28;8953;-80
2021/07/18 02:03:06;;;;;;;;;10.60;8.80;;;;;;;;5004500;28;8858;-83
2021/07/18 02:05:34;;;;;;;;;7.75;7.50;;;;;;;;5004265;28;8877;-81
2021/07/18 02:08:01;;;;;;;;;7.50;7.50;;;;;;;;5009428;28;8886;-78
2021/07/18 02:10:28;;;;;;;;;7.25;7.25;;;;;;;;4977189;28;8830;-85
2021/07/18 02:12:56;;;;;;;;;7.75;6.00;;;;;;;;5012229;28;9641;-81
2021/07/18 02:15:25;;;;;;;;;6.75;6.25;;;;;;;;4992002;28;8877;-80
2021/07/18 02:17:52;;;;;;;;;5.00;5.00;;;;;;;;5008512;28;8875;-82
2021/07/18 02:20:22;;;;;;;;;6.25;5.25;;;;;;;;5012933;28;8855;-83
2021/07/18 02:22:50;;;;;;;;;6.00;6.00;;;;;;;;5001862;28;8867;-80
2021/07/18 02:25:19;;;;;;;;;7.80;5.00;;;;;;;;5008261;28;8867;-81
2021/07/18 02:27:47;;;;;;;;;7.00;7.00;;;;;;;;5015365;28;9001;-80
2021/07/18 02:30:16;;;;;;;;;5.75;5.25;;;;;;;;5017898;28;9003;-80
2021/07/18 02:32:45;;;;;;;;;6.00;6.00;;;;;;;;5027358;28;8981;-79
2021/07/18 02:35:15;;;;;;;;;5.00;5.00;;;;;;;;5025739;28;8885;-81
2021/07/18 02:37:43;;;;;;;;;10.00;6.75;;;;;;;;5026211;28;8979;-83
2021/07/18 02:40:11;;;;;;;;;6.75;6.75;;;;;;;;5025609;28;8936;-78
2021/07/18 02:42:39;;;;;;;;;9.50;7.50;;;;;;;;5025597;28;9770;-82
2021/07/18 02:45:08;;;;;;;;;6.50;5.50;;;;;;;;5026074;28;8821;-78
2021/07/18 02:47:35;;;;;;;;;7.00;7.00;;;;;;;;5025646;28;8872;-79
2021/07/18 02:50:05;;;;;;;;;7.25;7.25;;;;;;;;5027443;28;8868;-78
2021/07/18 02:52:32;;;;;;;;;6.50;6.50;;;;;;;;5025830;28;9006;-78
2021/07/18 02:55:00;;;;;;;;;7.50;7.50;;;;;;;;5026038;28;8903;-78
2021/07/18 02:57:27;;;;;;;;;6.00;6.00;;;;;;;;5008693;28;8861;-78
2021/07/18 02:59:54;;;;;;;;;6.00;6.00;;;;;;;;5022654;28;8898;-82
2021/07/18 03:02:22;;;;;;;;;8.00;6.75;;;;;;;;5025676;28;8925;-78
2021/07/18 03:04:49;;;;;;;;;4.00;4.00;;;;;;;;5025759;28;8900;-81
2021/07/18 03:07:18;;;;;;;;;7.50;7.50;;;;;;;;5026678;28;8882;-78
2021/07/18 03:09:45;;;;;;;;;5.00;5.00;;;;;;;;5023890;28;8918;-78
2021/07/18 03:12:12;;;;;;;;;9.75;9.75;;;;;;;;5026216;28;9533;-80
2021/07/18 03:14:39;;;;;;;;;9.00;9.00;;;;;;;;5024921;28;8926;-79
2021/07/18 03:17:07;;;;;;;;;9.00;7.75;;;;;;;;5025955;28;8876;-78
2021/07/18 03:19:34;;;;;;;;;10.00;9.50;;;;;;;;5012388;28;8868;-78
2021/07/18 03:22:02;;;;;;;;;10.50;9.00;;;;;;;;5024134;28;9061;-80
2021/07/18 03:24:30;;;;;;;;;8.00;7.50;;;;;;;;5024465;28;8841;-78
2021/07/18 03:26:58;;;;;;;;;10.00;10.00;;;;;;;;5023799;28;8872;-79
2021/07/18 03:29:26;;;;;;;;;14.75;10.00;;;;;;;;5025543;28;8871;-79
2021/07/18 03:31:54;;;;;;;;;8.00;7.50;;;;;;;;5023368;28;8812;-80
2021/07/18 03:34:21;;;;;;;;;9.00;9.00;;;;;;;;5009380;28;8896;-80
2021/07/18 03:36:49;;;;;;;;;11.25;8.75;;;;;;;;5005425;28;8848;-78
2021/07/18 03:39:16;;;;;;;;;7.25;7.25;;;;;;;;5023098;28;8890;-79
2021/07/18 03:41:45;;;;;;;;;11.25;11.25;;;;;;;;5025451;28;8857;-78
2021/07/18 03:44:12;;;;;;;;;11.25;9.75;;;;;;;;5006708;28;8905;-82
2021/07/18 03:46:40;;;;;;;;;9.75;9.75;;;;;;;;5025428;28;8882;-79
2021/07/18 03:49:08;;;;;;;;;8.00;8.00;;;;;;;;5023558;28;8873;-79
2021/07/18 03:51:36;;;;;;;;;6.75;6.75;;;;;;;;5024432;28;8880;-81
2021/07/18 03:54:03;;;;;;;;;11.50;9.50;;;;;;;;5021596;28;8862;-79
2021/07/18 03:56:30;;;;;;;;;11.75;9.00;;;;;;;;5024156;28;8917;-78
2021/07/18 03:58:59;;;;;;;;;11.50;9.25;;;;;;;;5024052;28;8891;-78
2021/07/18 04:01:26;;;;;;;;;11.50;9.25;;;;;;;;5022302;28;8955;-80
2021/07/18 04:03:54;;;;;;;;;12.25;10.00;;;;;;;;5024810;28;8911;-78
2021/07/18 04:06:21;;;;;;;;;10.00;8.50;;;;;;;;5023650;28;8864;-76
2021/07/18 04:08:49;;;;;;;;;10.50;8.00;;;;;;;;5024855;28;8884;-77
2021/07/18 04:11:16;;;;;;;;;9.25;9.25;;;;;;;;5027570;28;8892;-77
2021/07/18 04:13:43;;;;;;;;;10.00;9.50;;;;;;;;5026610;28;8857;-77
2021/07/18 04:16:12;;;;;;;;;10.50;9.75;;;;;;;;5024435;28;8879;-79
2021/07/18 04:18:39;;;;;;;;;15.50;12.75;;;;;;;;5023381;28;9001;-77
2021/07/18 04:21:07;;;;;;;;;9.00;9.00;;;;;;;;5024268;28;8925;-76
2021/07/18 04:23:34;;;;;;;;;9.25;8.25;;;;;;;;5025670;28;8866;-79
2021/07/18 04:26:01;;;;;;;;;13.75;10.00;;;;;;;;5024433;28;9718;-79
2021/07/18 04:28:28;;;;;;;;;10.00;9.00;;;;;;;;5023775;28;8977;-78
2021/07/18 04:30:56;;;;;;;;;9.75;9.75;;;;;;;;5022993;28;8892;-80
2021/07/18 04:33:24;;;;;;;;;8.25;8.25;;;;;;;;5023724;28;8878;-78
2021/07/18 04:35:52;;;;;;;;;10.00;10.00;;;;;;;;5024658;28;8899;-79
2021/07/18 04:38:19;;;;;;;;;7.75;7.75;;;;;;;;5022290;28;8825;-80
2021/07/18 04:40:46;;;;;;;;;11.75;10.75;;;;;;;;5023232;28;9789;-78
2021/07/18 04:43:14;;;;;;;;;11.75;11.50;;;;;;;;5023123;28;8988;-80
2021/07/18 04:45:41;;;;;;;;;9.25;9.25;;;;;;;;5021209;28;9028;-79
2021/07/18 04:48:08;;;;;;;;;15.75;10.00;;;;;;;;5022567;28;9591;-78
2021/07/18 04:50:37;;;;;;;;;12.25;12.00;;;;;;;;5023713;28;8852;-78
2021/07/18 04:53:05;;;;;;;;;7.50;7.50;;;;;;;;5025162;28;8905;-77
2021/07/18 04:55:32;;;;;;;;;7.50;6.75;;;;;;;;5024624;28;8869;-78
2021/07/18 04:57:59;;;;;;;;;9.00;9.00;;;;;;;;5023450;28;8872;-79
2021/07/18 05:00:27;;;;;;;;;11.75;8.75;;;;;;;;5023456;28;8804;-80
2021/07/18 05:02:54;;;;;;;;;11.50;8.75;;;;;;;;5007928;28;8896;-78
2021/07/18 05:05:22;;;;;;;;;13.00;9.25;;;;;;;;5007455;28;8876;-80
2021/07/18 05:07:52;;;;;;;;;8.50;8.50;;;;;;;;5022078;28;8885;-78
2021/07/18 05:10:21;;;;;;;;;8.00;8.00;;;;;;;;5026336;28;8891;-80
2021/07/18 05:12:49;;;;;;;;;14.50;11.00;;;;;;;;5024879;28;8854;-77
2021/07/18 05:15:17;;;;;;;;;10.50;10.00;;;;;;;;5022853;28;8843;-82
2021/07/18 05:17:44;;;;;;;;;8.25;8.25;;;;;;;;5017307;28;8898;-80
2021/07/18 05:20:16;;;;;;;;;11.75;8.50;;;;;;;;5023735;28;8856;-81
2021/07/18 05:22:43;;;;;;;;;12.00;11.50;;;;;;;;5025131;28;8883;-79
2021/07/18 05:25:13;;;;;;;;;9.00;9.00;;;;;;;;5024094;28;8982;-78
2021/07/18 05:27:41;;;;;;;;;9.25;8.50;;;;;;;;5023992;28;8883;-81
2021/07/18 05:30:09;;;;;;;;;9.75;9.75;;;;;;;;5009349;28;9682;-80
2021/07/18 05:32:37;;;;;;;;;7.25;7.00;;;;;;;;5000869;28;8958;-80
2021/07/18 05:35:05;;;;;;;;;9.00;8.75;;;;;;;;5005572;28;8882;-80
2021/07/18 05:37:32;;;;;;;;;10.75;8.00;;;;;;;;5011541;28;8905;-79
2021/07/18 05:39:59;;;;;;;;;9.75;8.00;;;;;;;;5002449;28;8885;-80
2021/07/18 05:42:28;;;;;;;;;7.50;6.00;;;;;;;;5001336;28;9655;-78
2021/07/18 05:44:55;;;;;;;;;7.50;5.75;;;;;;;;5005365;28;8868;-81
2021/07/18 05:47:22;;;;;;;;;7.50;7.25;;;;;;;;5001616;28;8928;-81
2021/07/18 05:49:49;;;;;;;;;7.25;5.75;;;;;;;;5001697;28;8871;-79
2021/07/18 05:52:17;;;;;;;;;10.25;8.75;;;;;;;;5004294;28;8855;-80
2021/07/18 05:54:44;;;;;;;;;8.00;5.75;;;;;;;;4998352;28;8881;-84
2021/07/18 05:57:11;;;;;;;;;7.00;7.00;;;;;;;;5003391;28;8891;-80
2021/07/18 05:59:40;;;;;;;;;7.00;7.00;;;;;;;;5005503;28;8886;-81
2021/07/18 06:02:07;;;;;;;;;6.25;6.25;;;;;;;;5010597;28;8831;-79
2021/07/18 06:04:40;;;;;;;;;7.50;7.25;;;;;;;;5006622;28;8872;-81
2021/07/18 06:07:07;;;;;;;;;9.75;8.00;;;;;;;;5003169;28;8871;-80
2021/07/18 06:09:34;;;;;;;;;8.00;8.00;;;;;;;;5007542;28;8902;-81
2021/07/18 06:12:02;;;;;;;;;7.25;7.25;;;;;;;;5006562;28;8889;-81
2021/07/18 06:14:29;;;;;;;;;5.50;4.50;;;;;;;;5009808;28;8899;-80
2021/07/18 06:17:01;;;;;;;;;8.25;7.75;;;;;;;;5002046;28;8892;-83
2021/07/18 06:19:28;;;;;;;;;7.00;7.00;;;;;;;;5006466;28;8989;-77
2021/07/18 06:21:55;;;;;;;;;9.00;7.00;;;;;;;;5004892;28;8994;-82
2021/07/18 06:24:22;;;;;;;;;4.75;4.75;;;;;;;;5001552;28;8867;-77
2021/07/18 06:26:50;;;;;;;;;6.40;5.80;;;;;;;;5002617;28;8882;-82
2021/07/18 06:29:17;;;;;;;;;8.50;7.25;;;;;;;;5008092;28;8874;-77
2021/07/18 06:31:44;;;;;;;;;4.60;4.60;;;;;;;;5021341;28;8872;-79
2021/07/18 06:34:13;;;;;;;;;8.40;8.40;;;;;;;;5021234;28;8873;-76
2021/07/18 06:36:41;;;;;;;;;9.40;6.40;;;;;;;;5022027;28;8888;-76
2021/07/18 06:39:08;;;;;;;;;7.20;5.80;;;;;;;;5008280;28;8871;-77
2021/07/18 06:41:36;;;;;;;;;5.00;5.00;;;;;;;;5003971;28;9638;-77
2021/07/18 06:44:04;;;;;;;;;8.20;6.80;;;;;;;;5004840;28;8961;-76
2021/07/18 06:46:33;;;;;;;;;4.20;3.60;;;;;;;;5020217;28;8904;-79
2021/07/18 06:49:00;;;;;;;;;7.00;7.00;;;;;;;;5022668;28;8877;-76
2021/07/18 06:51:31;;;;;;;;;5.80;5.80;;;;;;;;5021981;28;9005;-80
2021/07/18 06:53:59;;;;;;;;;7.80;6.00;;;;;;;;5022086;28;9007;-77
2021/07/18 06:56:27;;;;;;;;;5.60;5.60;;;;;;;;5023096;28;8911;-78
2021/07/18 06:58:54;;;;;;;;;6.80;6.80;;;;;;;;5021264;28;8883;-77
2021/07/18 07:01:22;;;;;;;;;5.00;5.00;;;;;;;;5024196;28;8838;-77
2021/07/18 07:03:49;;;;;;;;;8.00;7.20;;;;;;;;5021124;28;8872;-80
2021/07/18 07:06:17;;;;;;;;;6.40;6.40;;;;;;;;5009641;28;8853;-72
2021/07/18 07:09:00;;;;;;;;;9.20;6.40;;;;;;;;5023564;28;8853;-81
2021/07/18 07:11:31;;;;;;;;;4.00;4.00;;;;;;;;5024220;28;8916;-84
2021/07/18 07:13:58;;;;;;;;;6.20;5.20;;;;;;;;5024680;28;8922;-81
2021/07/18 07:16:25;;;;;;;;;5.60;5.00;;;;;;;;5025613;28;8876;-85
2021/07/18 07:18:53;;;;;;;;;5.40;5.40;;;;;;;;5022621;28;9588;-85
2021/07/18 07:21:20;;;;;;;;;5.60;4.80;;;;;;;;5007432;28;8870;-82
2021/07/18 07:23:48;;;;;;;;;3.40;3.40;;;;;;;;5009110;28;8926;-83
2021/07/18 07:26:17;;;;;;;;;4.00;4.00;;;;;;;;5025592;28;8905;-88
2021/07/18 07:28:44;;;;;;;;;3.00;3.00;;;;;;;;5024439;28;8864;-85
2021/07/18 07:31:12;;;;;;;;;5.00;3.00;;;;;;;;5006969;28;8960;-86
2021/07/18 07:33:39;;;;;;;;;3.80;3.80;;;;;;;;5007045;28;8887;-85
2021/07/18 07:36:07;;;;;;;;;5.00;3.40;;;;;;;;5026567;28;9602;-87
2021/07/18 07:38:35;;;;;;;;;5.00;3.60;;;;;;;;5023624;28;8865;-84
2021/07/18 07:41:02;;;;;;;;;2.60;2.60;;;;;;;;5029369;28;8899;-83
2021/07/18 07:43:31;;;;;;;;;3.00;3.00;;;;;;;;5022281;28;8967;-82
2021/07/18 07:45:58;;;;;;;;;3.20;3.20;;;;;;;;5025656;28;9880;-82
2021/07/18 07:48:26;;;;;;;;;3.40;3.40;;;;;;;;5022825;28;8904;-84
2021/07/18 07:50:54;;;;;;;;;3.60;3.60;;;;;;;;5026139;28;8919;-84
2021/07/18 07:53:30;;;;;;;;;4.00;4.00;;;;;;;;5024805;28;8853;-84
2021/07/18 07:55:59;;;;;;;;;2.80;2.80;;;;;;;;5024482;28;8990;-84
2021/07/18 07:58:26;;;;;;;;;1.40;1.40;;;;;;;;5024538;28;8853;-83
2021/07/18 08:00:55;;;;;;;;;3.40;3.40;;;;;;;;5023263;28;8821;-83
2021/07/18 08:03:23;;;;;;;;;4.00;4.00;;;;;;;;5008528;28;8875;-82
2021/07/18 08:05:50;;;;;;;;;4.20;3.60;;;;;;;;5022845;28;8876;-79
2021/07/18 08:08:18;;;;;;;;;3.20;2.80;;;;;;;;5020489;28;8852;-80
2021/07/18 08:10:47;;;;;;;;;2.60;2.60;;;;;;;;5019859;28;8857;-82
2021/07/18 08:13:14;;;;;;;;;4.00;4.00;;;;;;;;5024410;28;8900;-78
2021/07/18 08:15:42;;;;;;;;;4.00;2.80;;;;;;;;5024340;28;8846;-79
2021/07/18 08:18:11;;;;;;;;;3.40;3.40;;;;;;;;5008091;28;9016;-81
2021/07/18 08:20:39;;;;;;;;;2.80;2.80;;;;;;;;5024219;28;8914;-79
2021/07/18 08:23:06;;;;;;;;;2.40;2.40;;;;;;;;5023770;28;8881;-81
2021/07/18 08:25:33;;;;;;;;;3.20;3.20;;;;;;;;5023703;28;8908;-79
2021/07/18 08:28:01;;;;;;;;;3.00;3.00;;;;;;;;5022685;28;8861;-80
2021/07/18 08:30:29;;;;;;;;;2.40;2.40;;;;;;;;5003392;28;8860;-80
2021/07/18 08:32:56;;;;;;;;;1.80;1.80;;;;;;;;5024214;28;8894;-79
2021/07/18 08:35:25;;;;;;;;;2.80;2.80;;;;;;;;5025810;28;8860;-79
2021/07/18 08:37:52;;;;;;;;;2.00;2.00;;;;;;;;5022173;28;9634;-77
2021/07/18 08:40:19;;;;;;;;;4.00;2.20;;;;;;;;5021293;28;8877;-80
2021/07/18 08:42:47;;;;;;;;;3.00;3.00;;;;;;;;5006478;28;8885;-80
2021/07/18 08:45:15;;;;;;;;;3.20;3.20;;;;;;;;5004677;28;9669;-81
2021/07/18 08:47:42;;;;;;;;;4.20;2.60;;;;;;;;5023060;28;8868;-78
2021/07/18 08:50:11;;;;;;;;;2.00;2.00;;;;;;;;5023794;28;8873;-76
2021/07/18 08:52:40;;;;;;;;;1.60;1.60;;;;;;;;5023165;28;8885;-74
2021/07/18 08:55:08;;;;;;;;;1.00;1.00;;;;;;;;5020315;28;8858;-80
2021/07/18 08:57:36;;;;;;;;;2.80;2.80;;;;;;;;4989531;28;9807;-78
2021/07/18 09:00:07;;;;;;;;;1.00;1.00;;;;;;;;5022073;28;8873;-79
2021/07/18 09:02:34;;;;;;;;;4.00;2.80;;;;;;;;5003408;28;8862;-79
2021/07/18 09:05:02;;;;;;;;;3.00;3.00;;;;;;;;5023712;28;8910;-79
2021/07/18 09:07:29;;;;;;;;;2.00;2.00;;;;;;;;5007163;28;9713;-82
2021/07/18 09:10:06;;;;;;;;;4.00;1.80;;;;;;;;5023374;28;8840;-78
2021/07/18 09:12:34;;;;;;;;;2.00;2.00;;;;;;;;5023319;28;8976;-79
2021/07/18 09:15:01;;;;;;;;;2.80;2.80;;;;;;;;5022768;28;8919;-82
2021/07/18 09:17:34;;;;;;;;;4.80;3.00;;;;;;;;5023977;28;8872;-82
2021/07/18 09:20:13;;;;;;;;;3.60;3.60;;;;;;;;5020810;28;8861;-77
2021/07/18 09:22:40;;;;;;;;;3.80;3.80;;;;;;;;5022123;28;8882;-80
2021/07/18 09:25:10;;;;;;;;;2.20;2.20;;;;;;;;5023138;28;8853;-79
2021/07/18 09:27:37;;;;;;;;;2.00;2.00;;;;;;;;5017482;28;8898;-81
2021/07/18 09:30:08;;;;;;;;;0.20;0.20;;;;;;;;5020089;28;8860;-81
2021/07/18 09:32:36;;;;;;;;;2.40;2.40;;;;;;;;5016062;28;8993;-80
2021/07/18 09:35:06;;;;;;;;;2.00;2.00;;;;;;;;5023167;28;9652;-79
2021/07/18 09:37:35;;;;;;;;;3.00;3.00;;;;;;;;5018760;28;9618;-82
2021/07/18 09:40:04;;;;;;;;;3.60;3.60;;;;;;;;5022506;28;8876;-79
2021/07/18 09:42:38;;;;;;;;;3.20;3.20;;;;;;;;5019544;28;8875;-79
2021/07/18 09:45:08;;;;;;;;;2.80;2.80;;;;;;;;5024980;28;8876;-80
2021/07/18 09:47:53;;;;;;;;;2.60;2.60;;;;;;;;5029489;28;8844;-85
2021/07/18 09:50:22;;;;;;;;;4.40;4.40;;;;;;;;5028986;28;9719;-87
2021/07/18 09:52:49;;;;;;;;;5.00;4.00;;;;;;;;5021998;28;9673;-85
2021/07/18 09:55:22;;;;;;;;;2.00;2.00;;;;;;;;5022705;28;8961;-83
2021/07/18 09:57:54;;;;;;;;;9.00;9.00;;;;;;;;5020840;28;8882;-80
2021/07/18 10:00:22;;;;;;;;;3.00;3.00;;;;;;;;5020482;28;8869;-79
2021/07/18 10:02:51;;;;;;;;;3.00;3.00;;;;;;;;5020810;28;8874;-84
2021/07/18 10:05:28;;;;;;;;;2.20;2.20;;;;;;;;5005789;28;8861;-84
2021/07/18 10:08:06;;;;;;;;;3.00;1.80;;;;;;;;5016214;28;8931;-84
2021/07/18 10:10:34;;;;;;;;;3.20;2.20;;;;;;;;5021192;28;8865;-82
2021/07/18 10:13:04;;;;;;;;;2.00;2.00;;;;;;;;5021512;28;8898;-79
2021/07/18 10:15:32;;;;;;;;;2.20;2.20;;;;;;;;5022675;28;8850;-79
2021/07/18 10:17:59;;;;;;;;;3.60;2.40;;;;;;;;5004390;28;8999;-88
2021/07/18 10:20:28;;;;;;;;;3.00;3.00;;;;;;;;5019377;28;8987;-83
2021/07/18 10:22:56;;;;;;;;;3.00;3.00;;;;;;;;5021880;28;8873;-87
2021/07/18 10:25:25;;;;;;;;;10.00;6.80;;;;;;;;5020487;28;8860;-84
2021/07/18 10:27:53;;;;;;;;;2.80;2.00;;;;;;;;5020871;28;9642;-88
2021/07/18 10:30:22;;;;;;;;;5.20;4.80;;;;;;;;5018968;28;8982;-93
2021/07/18 10:32:54;;;;;;;;;3.20;3.20;;;;;;;;5027472;28;8887;-84
2021/07/18 10:35:23;;;;;;;;;4.20;3.80;;;;;;;;5025889;28;8964;-82
2021/07/18 10:37:52;;;;;;;;;3.20;2.60;;;;;;;;5023832;28;9579;-89
2021/07/18 10:40:24;;;;;;;;;4.80;4.00;;;;;;;;5025895;28;8833;-88
2021/07/18 10:42:52;;;;;;;;;3.40;3.40;;;;;;;;5026903;28;8872;-88
2021/07/18 10:45:23;;;;;;;;;2.40;2.40;;;;;;;;5030204;28;8825;-88
2021/07/18 10:48:02;;;;;;;;;4.80;4.60;;;;;;;;5022767;28;8896;-85
2021/07/18 10:50:47;;;;;;;;;0.00;0.00;;;;;;;;5025095;28;8982;-85
2021/07/18 10:53:20;;;;;;;;;1.60;1.60;;;;;;;;5024401;28;8861;-82
2021/07/18 10:55:48;;;;;;;;;5.40;5.40;;;;;;;;5024019;28;8870;-84
2021/07/18 10:58:51;;;;;;;;;4.20;4.00;;;;;;;;5028411;28;8845;-81
2021/07/18 11:01:41;;;;;;;;;8.40;8.40;;;;;;;;5004952;28;8808;-83
2021/07/18 11:04:40;;;;;;;;;4.00;4.00;;;;;;;;5024828;28;8995;-85
2021/07/18 11:07:29;;;;;;;;;3.00;3.00;;;;;;;;5009112;28;8995;-85
2021/07/18 11:09:57;;;;;;;;;4.60;4.60;;;;;;;;5022761;28;8893;-83
2021/07/18 11:12:26;;;;;;;;;14.20;14.20;;;;;;;;5023172;28;8881;-89
2021/07/18 11:14:54;;;;;;;;;30.00;23.80;;;;;;;;5023176;28;8937;-81
2021/07/18 11:17:32;;;;;;;;;25.80;25.20;;;;;;;;5024561;28;8873;-84
2021/07/18 11:20:01;;;;;;;;;21.40;18.20;;;;;;;;5024855;28;8869;-86
2021/07/18 11:22:59;;;;;;;;;16.80;15.40;;;;;;;;5025010;28;8901;-85
2021/07/18 11:25:51;;;;;;;;;7.60;6.00;;;;;;;;5023803;28;8885;-85
2021/07/18 11:28:51;;;;;;;;;6.20;6.20;;;;;;;;5016472;28;8853;-85
2021/07/18 11:31:44;;;;;;;;;10.40;10.40;;;;;;;;5003715;28;8954;-87
2021/07/18 11:34:21;;;;;;;;;5.00;5.00;;;;;;;;5002013;28;8895;-78
2021/07/18 11:37:01;;;;;;;;;9.00;6.00;;;;;;;;4988064;28;9006;-79
2021/07/18 11:39:30;;;;;;;;;5.00;4.00;;;;;;;;5007349;28;8974;-85
2021/07/18 11:41:58;;;;;;;;;5.80;5.80;;;;;;;;5005383;28;9597;-85
2021/07/18 11:44:27;;;;;;;;;8.80;8.80;;;;;;;;5004814;28;8871;-83
2021/07/18 11:46:57;;;;;;;;;8.00;5.20;;;;;;;;5004364;28;8879;-79
2021/07/18 11:49:34;;;;;;;;;2.80;2.80;;;;;;;;4987489;28;8859;-84
2021/07/18 11:52:02;;;;;;;;;13.80;13.80;;;;;;;;5004176;28;8978;-83
2021/07/18 11:54:29;;;;;;;;;7.80;7.80;;;;;;;;5003179;28;8898;-85
2021/07/18 11:56:57;;;;;;;;;2.60;2.60;;;;;;;;5005269;28;8871;-84
2021/07/18 11:59:28;;;;;;;;;4.40;3.00;;;;;;;;5006290;28;8840;-86
2021/07/18 12:01:56;;;;;;;;;4.20;3.00;;;;;;;;5002785;28;8870;-83
2021/07/18 12:04:25;;;;;;;;;3.40;3.40;;;;;;;;5005568;28;8874;-87
2021/07/18 12:07:07;;;;;;;;;3.60;2.80;;;;;;;;5003562;28;8891;-86
2021/07/18 12:09:37;;;;;;;;;5.60;5.60;;;;;;;;5003606;28;8891;-83
2021/07/18 12:12:06;;;;;;;;;4.00;3.60;;;;;;;;5005597;28;8850;-86
2021/07/18 12:14:35;;;;;;;;;3.00;3.00;;;;;;;;5003947;28;8862;-84
2021/07/18 12:17:04;;;;;;;;;3.00;3.00;;;;;;;;5004785;28;8881;-84
2021/07/18 12:19:33;;;;;;;;;5.80;5.80;;;;;;;;4999660;28;8871;-84
2021/07/18 12:22:05;;;;;;;;;4.40;4.40;;;;;;;;5001231;28;8858;-81
2021/07/18 12:24:33;;;;;;;;;3.40;3.40;;;;;;;;5001538;28;8870;-85
2021/07/18 12:27:03;;;;;;;;;7.40;4.00;;;;;;;;5003452;28;8989;-90
2021/07/18 12:29:33;;;;;;;;;3.00;3.00;;;;;;;;5000527;28;8877;-83
2021/07/18 12:32:02;;;;;;;;;5.00;3.20;;;;;;;;5005348;28;8793;-84
2021/07/18 12:34:31;;;;;;;;;4.20;4.20;;;;;;;;5006062;28;8877;-83
2021/07/18 12:37:04;;;;;;;;;3.80;3.80;;;;;;;;4982640;28;8838;-81
2021/07/18 12:39:32;;;;;;;;;6.00;6.00;;;;;;;;5002944;28;8873;-85
2021/07/18 12:42:02;;;;;;;;;3.60;3.60;;;;;;;;5003289;28;8859;-85
2021/07/18 12:44:33;;;;;;;;;3.00;3.00;;;;;;;;5004014;28;8875;-84
2021/07/18 12:47:29;;;;;;;;;4.40;4.40;;;;;;;;5003491;28;8875;-83
2021/07/18 12:50:25;;;;;;;;;4.80;4.00;;;;;;;;5001343;28;8865;-84
2021/07/18 12:53:06;;;;;;;;;4.00;4.00;;;;;;;;5003348;28;8871;-85
2021/07/18 12:55:38;;;;;;;;;9.20;4.80;;;;;;;;5002764;28;8887;-88
2021/07/18 12:58:34;;;;;;;;;3.80;3.80;;;;;;;;5001257;28;8859;-83
2021/07/18 13:01:04;;;;;;;;;4.00;4.00;;;;;;;;4982825;28;8925;-83
2021/07/18 13:03:38;;;;;;;;;3.80;3.80;;;;;;;;5003587;28;8875;-85
2021/07/18 13:06:11;;;;;;;;;5.40;4.00;;;;;;;;5003130;28;8890;-83
2021/07/18 13:08:42;;;;;;;;;4.00;4.00;;;;;;;;5004037;28;8843;-85
2021/07/18 13:11:29;;;;;;;;;4.20;4.00;;;;;;;;5005156;28;8882;-86
2021/07/18 13:13:57;;;;;;;;;6.80;5.00;;;;;;;;4985665;28;8912;-87
2021/07/18 13:16:35;;;;;;;;;4.80;4.80;;;;;;;;5001868;28;8941;-84
2021/07/18 13:19:12;;;;;;;;;4.00;4.00;;;;;;;;4999639;28;9712;-80
2021/07/18 13:21:44;;;;;;;;;4.40;4.00;;;;;;;;5001392;28;8880;-86
2021/07/18 13:24:36;;;;;;;;;4.80;4.80;;;;;;;;4985417;28;8992;-83
2021/07/18 13:27:14;;;;;;;;;4.00;4.00;;;;;;;;4987367;28;8932;-82
2021/07/18 13:29:42;;;;;;;;;5.60;5.60;;;;;;;;5016776;28;8873;-79
2021/07/18 13:32:12;;;;;;;;;4.00;4.00;;;;;;;;5023339;28;8847;-82
2021/07/18 13:34:40;;;;;;;;;2.00;2.00;;;;;;;;5022681;28;8888;-86
2021/07/18 13:37:08;;;;;;;;;6.80;5.00;;;;;;;;5021381;28;8888;-83
2021/07/18 13:39:37;;;;;;;;;3.80;3.00;;;;;;;;5021705;28;9653;-88
2021/07/18 13:42:08;;;;;;;;;5.20;4.00;;;;;;;;5022571;28;8876;-90
2021/07/18 13:44:36;;;;;;;;;4.80;3.00;;;;;;;;5024512;28;8868;-84
2021/07/18 13:47:06;;;;;;;;;5.80;4.60;;;;;;;;5004637;28;8887;-84
2021/07/18 13:49:33;;;;;;;;;4.00;4.00;;;;;;;;5022769;28;8926;-82
2021/07/18 13:52:01;;;;;;;;;4.00;4.00;;;;;;;;5021206;28;8908;-89
2021/07/18 13:54:29;;;;;;;;;3.40;2.60;;;;;;;;5020190;28;9003;-86
2021/07/18 13:56:58;;;;;;;;;4.00;4.00;;;;;;;;5016935;28;8948;-82
2021/07/18 13:59:25;;;;;;;;;4.20;3.00;;;;;;;;5021545;28;8897;-85
2021/07/18 14:01:52;;;;;;;;;5.00;5.00;;;;;;;;5024403;28;8821;-86
2021/07/18 14:04:19;;;;;;;;;4.00;4.00;;;;;;;;5020495;28;8904;-83
2021/07/18 14:06:47;;;;;;;;;4.20;4.20;;;;;;;;5024419;28;8861;-83
2021/07/18 14:09:16;;;;;;;;;4.60;4.60;;;;;;;;5020436;28;9038;-83
2021/07/18 14:11:43;;;;;;;;;4.20;3.80;;;;;;;;5020995;28;8864;-80
2021/07/18 14:14:12;;;;;;;;;4.60;4.20;;;;;;;;5022549;28;8857;-84
2021/07/18 14:16:40;;;;;;;;;3.00;3.00;;;;;;;;5021177;28;8938;-83
2021/07/18 14:19:07;;;;;;;;;4.00;4.00;;;;;;;;5005036;28;8859;-83
2021/07/18 14:21:36;;;;;;;;;5.00;5.00;;;;;;;;5019941;28;8880;-80
2021/07/18 14:24:05;;;;;;;;;5.00;4.00;;;;;;;;5023276;28;8865;-84
2021/07/18 14:26:32;;;;;;;;;4.20;4.20;;;;;;;;5021125;28;9305;-83
2021/07/18 14:28:59;;;;;;;;;5.60;4.80;;;;;;;;5006682;28;9611;-83
2021/07/18 14:31:29;;;;;;;;;3.60;3.60;;;;;;;;5018798;28;8843;-86
2021/07/18 14:33:56;;;;;;;;;3.80;2.60;;;;;;;;5017727;28;10149;-84
2021/07/18 14:36:27;;;;;;;;;4.60;3.60;;;;;;;;5019841;28;8833;-81
2021/07/18 14:38:54;;;;;;;;;1.00;1.00;;;;;;;;5000907;28;9662;-80
2021/07/18 14:41:22;;;;;;;;;4.00;4.00;;;;;;;;5020447;28;8942;-87
2021/07/18 14:43:49;;;;;;;;;2.40;2.40;;;;;;;;5020439;28;8928;-84
2021/07/18 14:46:17;;;;;;;;;4.40;4.40;;;;;;;;5021485;28;8901;-78
2021/07/18 14:48:46;;;;;;;;;4.40;4.40;;;;;;;;5011223;28;9663;-85
2021/07/18 14:51:13;;;;;;;;;4.20;4.20;;;;;;;;5019141;28;8852;-82
2021/07/18 14:53:41;;;;;;;;;5.00;5.00;;;;;;;;5018521;28;8877;-89
2021/07/18 14:56:08;;;;;;;;;4.00;4.00;;;;;;;;5016928;28;9649;-87
2021/07/18 14:58:35;;;;;;;;;5.00;5.00;;;;;;;;5019891;28;8861;-85
2021/07/18 15:01:02;;;;;;;;;4.60;3.60;;;;;;;;4999977;28;8829;-84
2021/07/18 15:03:30;;;;;;;;;5.00;5.00;;;;;;;;5003236;28;8871;-85
2021/07/18 15:05:59;;;;;;;;;3.60;3.60;;;;;;;;5019809;28;8892;-85